createdAt,value
2023-04-14T00:03:20.077Z,80.88
2023-04-14T00:08:21.930Z,81.44
2023-04-14T00:13:23.589Z,80.90
2023-04-14T00:18:25.416Z,81.25
2023-04-14T00:23:27.055Z,81.68
2023-04-14T00:28:28.653Z,81.61
2023-04-14T00:33:30.430Z,81.84
2023-04-14T00:38:32.031Z,81.48
2023-04-14T00:43:35.722Z,82.17
2023-04-14T00:48:38.210Z,82.31
2023-04-14T00:53:40.442Z,82.56
2023-04-14T00:58:42.226Z,83.05
2023-04-14T01:03:44.379Z,84.10
2023-04-14T01:08:46.610Z,84.43
2023-04-14T01:14:04.335Z,84.66
2023-04-14T01:19:25.002Z,84.19
2023-04-14T01:24:41.015Z,84.51
2023-04-14T01:30:00.922Z,84.90
2023-04-14T01:35:13.330Z,83.99
2023-04-14T01:40:17.991Z,84.77
2023-04-14T01:45:24.542Z,85.19
2023-04-14T01:50:28.737Z,85.18
2023-04-14T01:55:31.989Z,85.88
2023-04-14T02:00:36.716Z,86.55
2023-04-14T02:05:40.113Z,86.58
2023-04-14T02:10:46.070Z,86.33
2023-04-14T02:15:49.363Z,86.56
2023-04-14T02:20:56.249Z,86.82
2023-04-14T02:26:30.014Z,86.53
2023-04-14T02:31:35.926Z,86.94
2023-04-14T02:36:48.296Z,87.23
2023-04-14T02:41:59.123Z,87.77
2023-04-14T02:47:10.187Z,88.21
2023-04-14T02:52:20.342Z,88.29
2023-04-14T02:57:23.516Z,88.01
2023-04-14T03:02:27.827Z,88.67
2023-04-14T03:07:37.986Z,88.33
2023-04-14T03:12:42.189Z,88.33
2023-04-14T03:17:48.736Z,89.02
2023-04-14T03:23:01.222Z,89.24
2023-04-14T03:28:13.609Z,89.18
2023-04-14T03:33:20.567Z,89.16
2023-04-14T03:38:26.401Z,88.75
2023-04-14T03:43:28.689Z,89.99
2023-04-14T03:48:44.260Z,89.58
2023-04-14T03:53:51.954Z,89.25
2023-04-14T03:58:55.933Z,89.97
2023-04-14T04:04:06.073Z,90.21
2023-04-14T04:09:11.666Z,90.65
2023-04-14T04:14:16.485Z,89.97
2023-04-14T04:19:21.989Z,89.83
2023-04-14T04:24:26.425Z,90.50
2023-04-14T04:29:29.158Z,91.27
2023-04-14T04:34:32.336Z,91.83
2023-04-14T04:39:37.915Z,90.78
2023-04-14T04:44:40.183Z,91.19
2023-04-14T04:49:41.951Z,91.80
2023-04-14T04:54:44.020Z,91.03
2023-04-14T04:59:46.561Z,91.29
2023-04-14T05:04:48.854Z,91.81
2023-04-14T05:09:50.806Z,92.22
2023-04-14T05:14:52.412Z,92.29
2023-04-14T05:19:54.118Z,92.03
2023-04-14T05:24:55.701Z,91.92
2023-04-14T05:29:57.508Z,91.90
2023-04-14T05:34:59.689Z,91.20
2023-04-14T05:40:01.461Z,90.63
2023-04-14T05:45:06.221Z,90.37
2023-04-14T05:50:08.511Z,89.84
2023-04-14T05:55:10.871Z,89.32
2023-04-14T06:00:14.419Z,89.94
2023-04-14T06:05:16.932Z,89.46
2023-04-14T06:10:18.679Z,88.46
2023-04-14T06:15:20.716Z,88.63
2023-04-14T06:20:22.382Z,88.93
2023-04-14T06:25:24.497Z,88.23
2023-04-14T06:30:28.563Z,87.53
2023-04-14T06:35:33.848Z,87.57
2023-04-14T06:40:35.863Z,86.97
2023-04-14T06:45:37.554Z,85.96
2023-04-14T06:50:39.149Z,86.23
2023-04-14T06:55:41.867Z,85.72
2023-04-14T07:00:43.561Z,85.83
2023-04-14T07:05:45.167Z,85.72
2023-04-14T07:10:47.870Z,85.75
2023-04-14T07:15:49.555Z,85.16
2023-04-14T07:20:52.639Z,84.76
2023-04-14T07:25:57.140Z,83.94
2023-04-14T07:30:59.032Z,83.23
2023-04-14T07:36:03.487Z,82.54
2023-04-14T07:41:07.041Z,81.43
2023-04-14T07:46:08.857Z,80.86
2023-04-14T07:51:12.138Z,80.17
2023-04-14T07:56:15.695Z,79.33
2023-04-14T08:01:17.543Z,78.81
2023-04-14T08:06:20.615Z,78.84
2023-04-14T08:11:22.431Z,76.93
2023-04-14T08:16:25.252Z,75.86
2023-04-14T08:21:27.864Z,74.67
2023-04-14T08:26:29.516Z,74.40
2023-04-14T08:31:33.180Z,72.75
2023-04-14T08:36:36.772Z,70.39
2023-04-14T08:41:41.566Z,68.34
2023-04-14T08:46:44.951Z,67.33
2023-04-14T08:51:48.270Z,65.90
2023-04-14T08:56:50.578Z,63.77
2023-04-14T09:01:53.292Z,62.30
2023-04-14T09:06:56.849Z,61.87
2023-04-14T09:11:58.668Z,60.72
2023-04-14T09:17:00.633Z,59.44
2023-04-14T09:22:02.430Z,58.65
2023-04-14T09:27:06.834Z,57.09
2023-04-14T09:32:09.365Z,54.92
2023-04-14T09:37:11.113Z,54.53
2023-04-14T09:42:12.710Z,54.47
2023-04-14T09:47:17.183Z,55.23
2023-04-14T09:52:18.770Z,54.20
2023-04-14T09:57:26.864Z,53.62
2023-04-14T10:02:28.753Z,53.66
2023-04-14T10:07:30.999Z,53.74
2023-04-14T10:12:32.757Z,54.23
2023-04-14T10:17:34.588Z,55.15
2023-04-14T10:22:41.941Z,53.87
2023-04-14T10:27:45.193Z,52.60
2023-04-14T10:32:48.024Z,52.01
2023-04-14T10:37:55.001Z,49.55
2023-04-14T10:42:57.371Z,50.44
2023-04-14T10:47:59.455Z,48.18
2023-04-14T10:53:09.277Z,50.94
2023-04-14T10:58:20.097Z,49.95
2023-04-14T11:03:21.858Z,47.11
2023-04-14T11:08:35.867Z,48.27
2023-04-14T11:13:39.102Z,47.09
2023-04-14T11:18:46.246Z,47.87
2023-04-14T11:23:49.205Z,47.15
2023-04-14T11:28:53.253Z,46.67
2023-04-14T11:33:55.480Z,47.57
2023-04-14T11:39:02.310Z,45.94
2023-04-14T11:44:04.295Z,46.49
2023-04-14T11:49:06.063Z,46.45
2023-04-14T11:54:07.881Z,46.59
2023-04-14T11:59:10.107Z,45.29
2023-04-14T12:04:12.467Z,45.77
2023-04-14T12:09:14.302Z,44.71
2023-04-14T12:14:17.495Z,44.30
2023-04-14T12:19:19.160Z,44.85
2023-04-14T12:24:20.826Z,45.39
2023-04-14T12:29:23.935Z,45.06
2023-04-14T12:34:26.886Z,44.43
2023-04-14T12:39:30.981Z,44.71
2023-04-14T12:44:32.661Z,42.65
2023-04-14T12:49:36.805Z,44.41
2023-04-14T12:54:48.937Z,44.86
2023-04-14T12:59:50.768Z,45.32
2023-04-14T13:04:52.448Z,43.56
2023-04-14T13:09:54.237Z,42.91
2023-04-14T13:14:55.881Z,43.52
2023-04-14T13:19:57.696Z,43.10
2023-04-14T13:25:00.535Z,42.48
2023-04-14T13:30:02.207Z,41.38
2023-04-14T13:35:04.162Z,43.16
2023-04-14T13:40:07.145Z,42.46
2023-04-14T13:45:09.475Z,43.93
2023-04-14T13:50:11.853Z,42.34
2023-04-14T13:55:13.683Z,40.00
2023-04-14T14:00:19.258Z,40.80
2023-04-14T14:05:20.889Z,40.83
2023-04-14T14:10:22.698Z,41.00
2023-04-14T14:15:24.301Z,40.40
2023-04-14T14:20:26.136Z,39.44
2023-04-14T14:25:29.252Z,39.86
2023-04-14T14:30:31.117Z,39.06
2023-04-14T14:35:32.713Z,39.17
2023-04-14T14:40:34.396Z,38.75
2023-04-14T14:45:37.331Z,37.54
2023-04-14T14:50:39.043Z,37.07
2023-04-14T14:55:40.721Z,38.31
2023-04-14T15:00:42.380Z,38.55
2023-04-14T15:05:44.181Z,37.94
2023-04-14T15:10:46.309Z,38.19
2023-04-14T15:15:47.998Z,38.01
2023-04-14T15:20:56.098Z,37.57
2023-04-14T15:25:57.723Z,37.44
2023-04-14T15:30:59.398Z,38.08
2023-04-14T15:36:01.618Z,38.38
2023-04-14T15:41:04.428Z,38.31
2023-04-14T15:46:06.942Z,37.96
2023-04-14T15:51:08.660Z,37.26
2023-04-14T15:56:11.614Z,38.13
2023-04-14T16:01:13.318Z,38.54
2023-04-14T16:06:14.982Z,38.20
2023-04-14T16:11:16.735Z,38.15
2023-04-14T16:16:18.812Z,39.13
2023-04-14T16:21:21.078Z,38.57
2023-04-14T16:26:23.823Z,39.17
2023-04-14T16:31:25.479Z,39.15
2023-04-14T16:36:27.306Z,39.03
2023-04-14T16:41:29.188Z,39.08
2023-04-14T16:46:31.431Z,39.53
2023-04-14T16:51:33.929Z,41.05
2023-04-14T16:56:38.179Z,41.99
2023-04-14T17:01:39.972Z,42.11
2023-04-14T17:06:41.779Z,41.71
2023-04-14T17:11:43.531Z,42.23
2023-04-14T17:16:45.284Z,43.39
2023-04-14T17:21:47.040Z,42.67
2023-04-14T17:26:49.306Z,43.76
2023-04-14T17:31:51.283Z,44.16
2023-04-14T17:36:54.214Z,44.64
2023-04-14T17:41:58.101Z,45.32
2023-04-14T17:47:06.885Z,45.36
2023-04-14T17:52:10.517Z,45.57
2023-04-14T17:57:13.306Z,45.29
2023-04-14T18:02:16.016Z,45.19
2023-04-14T18:07:17.853Z,45.33
2023-04-14T18:12:22.746Z,46.05
2023-04-14T18:17:24.909Z,46.30
2023-04-14T18:22:27.457Z,46.07
2023-04-14T18:32:33.764Z,48.13
2023-04-14T18:37:36.099Z,47.87
2023-04-14T18:42:39.079Z,48.72
2023-04-14T18:47:43.129Z,48.57
2023-04-14T18:52:44.827Z,50.39
2023-04-14T18:57:46.693Z,54.94
2023-04-14T19:02:48.619Z,56.05
2023-04-14T19:07:50.736Z,57.83
2023-04-14T19:12:52.570Z,54.79
2023-04-14T19:17:55.740Z,55.62
2023-04-14T19:22:58.476Z,54.01
2023-04-14T19:28:02.181Z,53.51
2023-04-14T19:33:03.987Z,52.65
2023-04-14T19:38:06.022Z,53.49
2023-04-14T19:43:08.600Z,53.51
2023-04-14T19:53:19.568Z,52.64
2023-04-14T19:58:22.024Z,52.59
2023-04-14T20:03:24.474Z,53.16
2023-04-14T20:08:30.567Z,53.07
2023-04-14T20:13:34.892Z,53.30
2023-04-14T20:18:38.336Z,54.03
2023-04-14T20:23:40.208Z,55.24
2023-04-14T20:28:42.899Z,55.72
2023-04-14T20:33:45.623Z,56.06
2023-04-14T20:38:47.248Z,56.35
2023-04-14T20:43:48.886Z,56.55
2023-04-14T20:48:50.646Z,56.99
2023-04-14T20:53:52.324Z,57.46
2023-04-14T20:58:54.474Z,57.22
2023-04-14T21:03:56.372Z,57.79
2023-04-14T21:08:58.129Z,58.23
2023-04-14T21:15:42.386Z,58.67
2023-04-14T21:19:21.410Z,58.79
2023-04-14T21:24:23.936Z,59.32
2023-04-14T21:29:25.576Z,59.09
2023-04-14T21:34:27.463Z,59.25
2023-04-14T21:39:30.060Z,59.27
2023-04-14T21:44:31.726Z,59.46
2023-04-14T21:49:33.717Z,59.66
2023-04-14T21:54:35.654Z,60.25
2023-04-14T21:59:39.022Z,60.00
2023-04-14T22:04:41.068Z,59.67
2023-04-14T22:09:44.168Z,59.16
2023-04-14T22:14:46.662Z,58.44
2023-04-14T22:19:48.373Z,58.05
2023-04-14T22:24:51.757Z,58.06
2023-04-14T22:29:54.019Z,57.77
2023-04-14T22:34:55.692Z,57.05
2023-04-14T22:39:57.759Z,56.99
2023-04-14T22:44:59.457Z,56.46
2023-04-14T22:50:01.919Z,55.93
2023-04-14T22:55:03.761Z,56.09
2023-04-14T23:00:09.235Z,56.27
2023-04-14T23:05:12.998Z,56.14
2023-04-14T23:10:15.350Z,56.75
2023-04-14T23:15:17.157Z,56.65
2023-04-14T23:20:20.985Z,57.13
2023-04-14T23:25:22.637Z,57.75
2023-04-14T23:30:24.325Z,58.37
2023-04-14T23:35:26.069Z,58.50
2023-04-14T23:40:29.440Z,58.96
2023-04-14T23:45:37.524Z,59.28
2023-04-14T23:51:00.510Z,59.69
2023-04-14T23:56:00.933Z,60.87
